createdAt,value
2018-06-19T00:01:27.161Z,39
2018-06-19T00:11:27.298Z,38
2018-06-19T00:21:28.567Z,36
2018-06-19T00:31:27.471Z,37
2018-06-19T00:41:27.912Z,37
2018-06-19T00:51:26.779Z,37
2018-06-19T01:01:31.583Z,38
2018-06-19T01:11:30.128Z,38
2018-06-19T01:21:29.687Z,36
2018-06-19T01:31:27.697Z,38
2018-06-19T01:41:27.941Z,37
2018-06-19T01:51:32.380Z,37
2018-06-19T02:01:27.468Z,38
2018-06-19T02:11:31.081Z,38
2018-06-19T02:21:29.690Z,37
2018-06-19T02:31:27.526Z,38
2018-06-19T02:41:27.353Z,38
2018-06-19T02:51:28.466Z,36
2018-06-19T03:01:35.556Z,37
2018-06-19T03:11:28.998Z,36
2018-06-19T03:21:27.654Z,37
2018-06-19T03:31:27.877Z,38
2018-06-19T03:41:27.266Z,37
2018-06-19T03:51:27.346Z,38
2018-06-19T04:01:27.211Z,37
2018-06-19T04:11:28.401Z,36
2018-06-19T04:21:27.498Z,37
2018-06-19T04:31:29.248Z,36
2018-06-19T04:41:27.118Z,36
2018-06-19T04:51:29.169Z,36
2018-06-19T05:01:27.500Z,38
2018-06-19T05:11:28.196Z,37
2018-06-19T05:21:30.051Z,37
2018-06-19T05:31:29.610Z,36
2018-06-19T05:41:27.963Z,37
2018-06-19T05:51:27.575Z,38
2018-06-19T06:01:28.550Z,36
2018-06-19T06:11:27.371Z,37
2018-06-19T06:21:28.304Z,37
2018-06-19T06:31:28.703Z,37
2018-06-19T06:41:27.590Z,36
2018-06-19T06:51:29.011Z,37
2018-06-19T07:01:28.086Z,36
2018-06-19T07:11:27.174Z,37
2018-06-19T07:21:27.905Z,36
2018-06-19T07:31:26.908Z,36
2018-06-19T07:41:26.727Z,37
2018-06-19T07:51:29.873Z,35
2018-06-19T08:01:31.132Z,35
2018-06-19T08:11:27.715Z,36
2018-06-19T08:21:26.791Z,36
2018-06-19T08:31:29.051Z,35
2018-06-19T08:41:26.914Z,35
2018-06-19T08:51:27.012Z,37
2018-06-19T09:01:27.165Z,36
2018-06-19T09:11:27.345Z,36
2018-06-19T09:21:28.637Z,34
2018-06-19T09:31:28.299Z,35
2018-06-19T09:41:27.201Z,35
2018-06-19T09:51:27.232Z,36
2018-06-19T10:01:27.486Z,35
2018-06-19T10:11:27.981Z,34
2018-06-19T10:21:27.642Z,34
2018-06-19T10:31:30.089Z,34
2018-06-19T10:41:28.121Z,34
2018-06-19T10:51:27.319Z,34
2018-06-19T11:01:27.828Z,35
2018-06-19T11:11:27.532Z,35
2018-06-19T11:21:29.838Z,35
2018-06-19T11:31:26.012Z,35
2018-06-19T11:41:28.998Z,35
2018-06-19T11:51:27.403Z,34
2018-06-19T12:01:26.833Z,34
2018-06-19T12:11:27.946Z,34
2018-06-19T12:21:26.691Z,35
2018-06-19T12:31:27.755Z,34
2018-06-19T12:41:27.857Z,34
2018-06-19T12:51:28.115Z,34
2018-06-19T13:01:26.867Z,35
2018-06-19T13:11:28.324Z,34
2018-06-19T13:21:30.608Z,33
2018-06-19T13:31:28.032Z,33
2018-06-19T13:41:28.391Z,33
2018-06-19T13:51:27.423Z,33
2018-06-19T14:01:29.728Z,34
2018-06-19T14:11:27.786Z,34
2018-06-19T14:21:27.419Z,33
2018-06-19T14:31:27.376Z,33
2018-06-19T14:41:27.513Z,34
2018-06-19T14:51:28.995Z,33
2018-06-19T15:01:26.838Z,33
2018-06-19T15:11:27.792Z,34
2018-06-19T15:21:26.932Z,34
2018-06-19T15:31:26.751Z,34
2018-06-19T15:41:29.335Z,33
2018-06-19T15:51:29.652Z,33
2018-06-19T16:01:27.896Z,34
2018-06-19T16:11:27.212Z,34
2018-06-19T16:21:27.702Z,33
2018-06-19T16:31:28.184Z,32
2018-06-19T16:41:28.259Z,32
2018-06-19T16:51:27.226Z,32
2018-06-19T17:01:30.833Z,33
2018-06-19T17:11:27.653Z,33
2018-06-19T17:21:28.149Z,34
2018-06-19T17:31:27.359Z,33
2018-06-19T17:41:27.569Z,34
2018-06-19T17:51:27.561Z,33
2018-06-19T18:01:29.766Z,33
2018-06-19T18:11:28.496Z,33
2018-06-19T18:21:27.725Z,33
2018-06-19T18:31:28.811Z,34
2018-06-19T18:41:28.423Z,34
2018-06-19T18:51:38.600Z,34
2018-06-19T19:01:28.224Z,34
2018-06-19T19:11:27.382Z,34
2018-06-19T19:21:28.436Z,34
2018-06-19T19:31:27.691Z,34
2018-06-19T19:41:28.222Z,34
2018-06-19T19:51:27.093Z,35
2018-06-19T20:01:27.408Z,34
2018-06-19T20:11:27.669Z,35
2018-06-19T20:21:26.759Z,35
2018-06-19T20:31:27.684Z,36
2018-06-19T20:41:28.006Z,36
2018-06-19T20:51:26.937Z,36
2018-06-19T21:01:28.747Z,35
2018-06-19T21:11:27.843Z,36
2018-06-19T21:21:26.932Z,35
2018-06-19T21:31:26.662Z,36
2018-06-19T21:41:31.021Z,34
2018-06-19T21:51:28.233Z,35
2018-06-19T22:01:27.042Z,35
2018-06-19T22:11:29.527Z,35
2018-06-19T22:21:33.116Z,35
2018-06-19T22:31:27.449Z,37
2018-06-19T22:41:27.399Z,36
2018-06-19T22:51:26.890Z,37
2018-06-19T23:01:26.960Z,36
2018-06-19T23:11:26.760Z,36
2018-06-19T23:21:27.027Z,37
2018-06-19T23:31:26.767Z,36
2018-06-19T23:41:27.606Z,37
2018-06-19T23:51:27.523Z,37
